createdAt,value
2018-09-17T00:01:43.111Z,3.60
2018-09-17T00:04:10.621Z,3.40
2018-09-17T00:06:38.099Z,3.10
2018-09-17T00:09:08.524Z,3.77
2018-09-17T00:11:36.446Z,3.17
2018-09-17T00:14:03.945Z,4.10
2018-09-17T00:16:31.448Z,3.70
2018-09-17T00:18:58.952Z,3.80
2018-09-17T00:21:26.453Z,3.40
2018-09-17T00:23:53.950Z,3.57
2018-09-17T00:26:21.459Z,3.43
2018-09-17T00:28:48.977Z,4.10
2018-09-17T00:31:16.470Z,3.70
2018-09-17T00:33:43.990Z,3.07
2018-09-17T00:36:11.507Z,3.63
2018-09-17T00:38:39.010Z,3.63
2018-09-17T00:41:06.522Z,3.70
2018-09-17T00:43:34.037Z,3.73
2018-09-17T00:46:01.546Z,3.53
2018-09-17T00:48:29.039Z,3.20
2018-09-17T00:50:56.551Z,3.60
2018-09-17T00:53:24.052Z,3.00
2018-09-17T00:55:51.546Z,3.60
2018-09-17T00:58:19.029Z,3.27
2018-09-17T01:00:46.552Z,3.27
2018-09-17T01:03:14.052Z,3.20
2018-09-17T01:05:41.556Z,3.40
2018-09-17T01:08:09.059Z,3.60
2018-09-17T01:10:36.560Z,3.33
2018-09-17T01:13:04.097Z,3.47
2018-09-17T01:15:31.595Z,3.50
2018-09-17T01:17:59.070Z,3.70
2018-09-17T01:20:26.589Z,3.60
2018-09-17T01:22:54.088Z,3.40
2018-09-17T01:25:21.594Z,3.10
2018-09-17T01:27:49.098Z,3.73
2018-09-17T01:30:16.616Z,3.33
2018-09-17T01:32:44.121Z,3.63
2018-09-17T01:35:11.640Z,3.70
2018-09-17T01:37:39.154Z,3.63
2018-09-17T01:40:06.668Z,3.30
2018-09-17T01:42:34.156Z,3.70
2018-09-17T01:45:01.653Z,3.60
2018-09-17T01:47:29.144Z,3.40
2018-09-17T01:49:56.675Z,3.33
2018-09-17T01:52:24.177Z,3.50
2018-09-17T01:54:51.679Z,3.57
2018-09-17T01:57:19.176Z,3.57
2018-09-17T01:59:46.696Z,3.30
2018-09-17T02:02:14.191Z,3.83
2018-09-17T02:04:42.356Z,3.47
2018-09-17T02:07:09.855Z,4.00
2018-09-17T02:09:39.005Z,3.40
2018-09-17T02:12:07.687Z,3.70
2018-09-17T02:14:35.210Z,3.50
2018-09-17T02:17:02.757Z,3.70
2018-09-17T02:19:30.247Z,3.73
2018-09-17T02:21:57.735Z,3.60
2018-09-17T02:24:25.237Z,3.90
2018-09-17T02:26:52.761Z,3.87
2018-09-17T02:29:20.272Z,3.67
2018-09-17T02:31:47.779Z,3.60
2018-09-17T02:34:15.319Z,4.10
2018-09-17T02:36:42.820Z,3.70
2018-09-17T02:39:10.337Z,3.87
2018-09-17T02:41:37.844Z,3.67
2018-09-17T02:44:05.564Z,3.67
2018-09-17T02:46:33.076Z,3.17
2018-09-17T02:49:00.601Z,3.60
2018-09-17T02:51:28.069Z,4.10
2018-09-17T02:53:55.582Z,3.50
2018-09-17T02:56:23.087Z,3.50
2018-09-17T02:58:50.585Z,3.73
2018-09-17T03:01:18.139Z,3.50
2018-09-17T03:03:45.865Z,3.53
2018-09-17T03:06:13.400Z,3.63
2018-09-17T03:08:40.923Z,3.63
2018-09-17T03:11:08.460Z,3.23
2018-09-17T03:13:36.001Z,3.23
2018-09-17T03:16:03.546Z,3.67
2018-09-17T03:18:46.335Z,3.40
2018-09-17T03:21:13.872Z,3.90
2018-09-17T03:23:41.425Z,3.13
2018-09-17T03:26:08.960Z,3.57
2018-09-17T03:28:36.497Z,3.37
2018-09-17T03:31:04.068Z,3.43
2018-09-17T03:33:31.601Z,3.40
2018-09-17T03:35:59.169Z,3.60
2018-09-17T03:38:35.320Z,4.00
2018-09-17T03:41:05.259Z,3.60
2018-09-17T03:43:33.698Z,3.67
2018-09-17T03:46:01.250Z,3.73
2018-09-17T03:48:29.880Z,3.80
2018-09-17T03:50:57.651Z,3.60
2018-09-17T03:53:25.195Z,3.53
2018-09-17T03:55:52.852Z,3.67
2018-09-17T03:58:20.400Z,3.63
2018-09-17T04:00:47.907Z,3.67
2018-09-17T04:03:15.528Z,3.20
2018-09-17T04:05:43.037Z,4.13
2018-09-17T04:08:10.540Z,3.73
2018-09-17T04:10:38.051Z,3.53
2018-09-17T04:13:05.538Z,3.87
2018-09-17T04:15:33.044Z,3.73
2018-09-17T04:18:00.551Z,4.07
2018-09-17T04:20:28.054Z,3.80
2018-09-17T04:22:56.199Z,4.10
2018-09-17T04:25:23.713Z,4.33
2018-09-17T04:27:51.228Z,3.60
2018-09-17T04:30:18.731Z,4.20
2018-09-17T04:32:46.227Z,4.47
2018-09-17T04:35:13.760Z,4.23
2018-09-17T04:37:41.263Z,4.23
2018-09-17T04:40:08.755Z,4.13
2018-09-17T04:42:37.404Z,4.17
2018-09-17T04:45:04.919Z,4.07
2018-09-17T04:47:32.732Z,3.70
2018-09-17T04:50:00.239Z,4.10
2018-09-17T04:52:27.764Z,4.17
2018-09-17T04:54:55.247Z,4.17
2018-09-17T04:57:22.777Z,4.20
2018-09-17T04:59:50.277Z,4.00
2018-09-17T05:02:17.787Z,4.60
2018-09-17T05:04:45.275Z,4.07
2018-09-17T05:07:12.820Z,4.47
2018-09-17T05:09:40.294Z,4.40
2018-09-17T05:12:08.021Z,4.23
2018-09-17T05:14:35.503Z,4.37
2018-09-17T05:17:03.005Z,4.50
2018-09-17T05:19:30.504Z,3.90
2018-09-17T05:21:58.151Z,4.30
2018-09-17T05:24:25.645Z,4.33
2018-09-17T05:26:53.209Z,4.67
2018-09-17T05:29:20.660Z,5.43
2018-09-17T05:31:48.201Z,4.53
2018-09-17T05:34:15.717Z,4.97
2018-09-17T05:36:43.210Z,4.70
2018-09-17T05:39:11.160Z,4.70
2018-09-17T05:41:38.704Z,4.77
2018-09-17T05:44:06.283Z,4.60
2018-09-17T05:46:34.163Z,4.13
2018-09-17T05:49:01.836Z,4.60
2018-09-17T05:51:29.333Z,4.40
2018-09-17T05:53:57.093Z,5.20
2018-09-17T05:56:24.711Z,4.60
2018-09-17T05:58:52.580Z,4.83
2018-09-17T06:01:20.111Z,4.97
2018-09-17T06:03:47.672Z,4.77
2018-09-17T06:06:15.217Z,4.33
2018-09-17T06:08:42.765Z,5.17
2018-09-17T06:11:10.318Z,5.40
2018-09-17T06:13:38.143Z,4.53
2018-09-17T06:16:05.695Z,5.27
2018-09-17T06:18:33.377Z,5.20
2018-09-17T06:21:00.908Z,5.10
2018-09-17T06:23:28.445Z,5.47
2018-09-17T06:25:55.988Z,5.17
2018-09-17T06:28:23.501Z,5.03
2018-09-17T06:30:51.052Z,5.13
2018-09-17T06:33:18.580Z,4.97
2018-09-17T06:35:46.124Z,5.10
2018-09-17T06:38:13.624Z,4.80
2018-09-17T06:40:41.130Z,4.83
2018-09-17T06:43:08.633Z,4.60
2018-09-17T06:45:36.140Z,5.00
2018-09-17T06:48:03.645Z,4.93
2018-09-17T06:50:31.339Z,4.65
2018-09-17T06:52:58.837Z,4.87
2018-09-17T06:55:26.349Z,4.17
2018-09-17T06:57:53.851Z,5.33
2018-09-17T07:00:21.359Z,5.10
2018-09-17T07:02:48.854Z,4.90
2018-09-17T07:05:16.358Z,4.80
2018-09-17T07:07:43.954Z,5.45
2018-09-17T07:10:11.446Z,4.45
2018-09-17T07:12:38.939Z,4.83
2018-09-17T07:15:06.445Z,5.00
2018-09-17T07:17:33.940Z,5.03
2018-09-17T07:20:01.555Z,4.80
2018-09-17T07:22:29.069Z,4.72
2018-09-17T07:24:56.573Z,5.00
2018-09-17T07:27:24.117Z,4.33
2018-09-17T07:29:51.624Z,4.30
2018-09-17T07:32:19.136Z,4.53
2018-09-17T07:34:46.636Z,4.42
2018-09-17T07:37:14.154Z,4.50
2018-09-17T07:39:41.651Z,4.85
2018-09-17T07:42:09.169Z,4.87
2018-09-17T07:44:36.655Z,4.70
2018-09-17T07:47:04.627Z,4.60
2018-09-17T07:49:32.190Z,4.42
2018-09-17T07:51:59.963Z,4.10
2018-09-17T07:54:27.518Z,3.95
2018-09-17T07:56:55.031Z,4.40
2018-09-17T07:59:22.527Z,4.53
2018-09-17T08:01:50.050Z,4.30
2018-09-17T08:04:17.622Z,4.47
2018-09-17T08:06:45.128Z,4.37
2018-09-17T08:09:13.783Z,4.50
2018-09-17T08:11:41.958Z,3.90
2018-09-17T08:14:09.584Z,4.17
2018-09-17T08:16:37.103Z,3.75
2018-09-17T08:19:04.649Z,3.87
2018-09-17T08:21:32.177Z,3.75
2018-09-17T08:23:59.744Z,4.37
2018-09-17T08:26:27.263Z,3.80
2018-09-17T08:28:54.763Z,4.10
2018-09-17T08:31:22.341Z,3.80
2018-09-17T08:33:49.797Z,3.65
2018-09-17T08:36:17.329Z,3.62
2018-09-17T08:38:44.832Z,3.70
2018-09-17T08:41:12.375Z,3.67
2018-09-17T08:43:39.929Z,3.98
2018-09-17T08:46:07.447Z,3.47
2018-09-17T08:48:34.972Z,3.65
2018-09-17T08:51:02.484Z,3.50
2018-09-17T08:53:30.013Z,3.75
2018-09-17T08:56:03.974Z,3.80
2018-09-17T08:58:38.335Z,3.10
2018-09-17T09:01:13.928Z,3.45
2018-09-17T09:04:46.962Z,3.40
2018-09-17T09:07:34.768Z,4.08
2018-09-17T09:10:09.466Z,3.30
2018-09-17T09:12:38.134Z,3.20
2018-09-17T09:15:11.544Z,3.15
2018-09-17T09:17:39.456Z,2.85
2018-09-17T09:20:07.216Z,3.47
2018-09-17T09:22:34.740Z,3.45
2018-09-17T09:25:02.257Z,3.33
2018-09-17T09:27:29.792Z,3.27
2018-09-17T09:29:57.286Z,3.17
2018-09-17T09:32:24.828Z,2.90
2018-09-17T09:34:52.696Z,3.20
2018-09-17T09:37:20.236Z,3.30
2018-09-17T09:39:48.128Z,3.50
2018-09-17T09:42:15.647Z,3.12
2018-09-17T09:44:43.231Z,3.50
2018-09-17T09:47:10.756Z,3.37
2018-09-17T09:49:38.264Z,3.25
2018-09-17T09:52:05.990Z,3.27
2018-09-17T09:54:33.507Z,3.10
2018-09-17T09:57:01.025Z,2.90
2018-09-17T09:59:28.634Z,3.12
2018-09-17T10:02:01.941Z,3.30
2018-09-17T10:04:29.444Z,3.20
2018-09-17T10:06:56.959Z,3.05
2018-09-17T10:09:30.243Z,3.30
2018-09-17T10:12:03.518Z,2.90
2018-09-17T10:14:36.982Z,2.92
2018-09-17T10:17:10.416Z,3.00
2018-09-17T10:19:43.711Z,2.65
2018-09-17T10:22:11.246Z,3.10
2018-09-17T10:24:38.758Z,2.98
2018-09-17T10:27:06.271Z,3.20
2018-09-17T10:29:33.754Z,3.25
2018-09-17T10:32:01.264Z,3.05
2018-09-17T10:34:28.755Z,2.95
2018-09-17T10:36:56.264Z,2.98
2018-09-17T10:39:23.762Z,3.27
2018-09-17T10:41:51.266Z,2.90
2018-09-17T10:44:18.771Z,2.70
2018-09-17T10:46:46.289Z,2.90
2018-09-17T10:49:13.790Z,2.83
2018-09-17T10:51:41.304Z,3.17
2018-09-17T10:54:08.801Z,4.53
2018-09-17T10:56:36.299Z,3.50
2018-09-17T10:59:03.820Z,3.27
2018-09-17T11:01:31.334Z,2.75
2018-09-17T11:03:58.852Z,3.00
2018-09-17T11:06:26.377Z,2.92
2018-09-17T11:08:53.875Z,3.10
2018-09-17T11:11:21.388Z,3.10
2018-09-17T11:13:48.887Z,2.75
2018-09-17T11:16:16.391Z,2.92
2018-09-17T11:18:43.904Z,2.60
2018-09-17T11:21:11.400Z,2.83
2018-09-17T11:23:38.904Z,3.00
2018-09-17T11:26:06.399Z,3.00
2018-09-17T11:28:33.892Z,2.80
2018-09-17T11:31:01.383Z,2.90
2018-09-17T11:33:28.866Z,3.30
2018-09-17T11:35:56.385Z,2.70
2018-09-17T11:38:23.941Z,2.85
2018-09-17T11:40:51.525Z,2.67
2018-09-17T11:43:19.056Z,2.95
2018-09-17T11:45:46.604Z,2.70
2018-09-17T11:48:14.170Z,2.90
2018-09-17T11:50:41.698Z,2.80
2018-09-17T11:53:09.260Z,2.80
2018-09-17T11:55:36.803Z,2.80
2018-09-17T11:58:04.326Z,3.17
2018-09-17T12:00:37.694Z,3.10
2018-09-17T12:03:10.932Z,2.70
2018-09-17T12:05:44.293Z,3.00
2018-09-17T12:08:14.372Z,2.90
2018-09-17T12:10:41.896Z,3.00
2018-09-17T12:13:09.491Z,3.05
2018-09-17T12:15:39.270Z,2.95
2018-09-17T12:18:07.355Z,3.65
2018-09-17T12:20:35.232Z,3.10
2018-09-17T12:23:02.779Z,3.08
2018-09-17T12:25:30.346Z,3.00
2018-09-17T12:27:58.007Z,2.67
2018-09-17T12:30:25.524Z,3.25
2018-09-17T12:32:53.088Z,3.12
2018-09-17T12:35:20.611Z,2.85
2018-09-17T12:37:48.132Z,3.52
2018-09-17T12:40:15.628Z,3.10
2018-09-17T12:42:43.135Z,2.85
2018-09-17T12:45:10.660Z,3.08
2018-09-17T12:47:38.167Z,2.83
2018-09-17T12:50:05.683Z,2.95
2018-09-17T12:52:33.194Z,3.22
2018-09-17T12:55:00.700Z,3.47
2018-09-17T12:57:28.272Z,3.20
2018-09-17T12:59:55.887Z,4.58
2018-09-17T13:02:23.399Z,3.25
2018-09-17T13:04:50.895Z,3.35
2018-09-17T13:07:18.971Z,3.20
2018-09-17T13:09:46.463Z,2.75
2018-09-17T13:12:13.973Z,3.00
2018-09-17T13:14:41.512Z,2.92
2018-09-17T13:17:08.993Z,3.08
2018-09-17T13:19:36.505Z,2.90
2018-09-17T13:22:04.026Z,3.12
2018-09-17T13:24:31.539Z,3.70
2018-09-17T13:26:59.039Z,3.17
2018-09-17T13:29:26.538Z,3.55
2018-09-17T13:31:54.076Z,3.08
2018-09-17T13:34:21.573Z,3.42
2018-09-17T13:36:49.283Z,3.52
2018-09-17T13:39:16.817Z,3.40
2018-09-17T13:41:44.352Z,3.40
2018-09-17T13:44:11.926Z,3.40
2018-09-17T13:46:39.464Z,3.45
2018-09-17T13:49:07.000Z,3.42
2018-09-17T13:51:34.555Z,3.80
2018-09-17T13:54:02.111Z,3.60
2018-09-17T13:56:29.660Z,3.42
2018-09-17T13:58:57.224Z,3.52
2018-09-17T14:01:24.775Z,3.20
2018-09-17T14:03:52.307Z,3.62
2018-09-17T14:06:19.854Z,3.40
2018-09-17T14:08:47.417Z,3.70
2018-09-17T14:11:14.980Z,3.80
2018-09-17T14:13:42.545Z,3.47
2018-09-17T14:16:10.117Z,3.77
2018-09-17T14:18:38.508Z,3.70
2018-09-17T14:21:06.575Z,3.90
2018-09-17T14:23:34.351Z,3.37
2018-09-17T14:26:01.960Z,4.00
2018-09-17T14:28:29.525Z,3.45
2018-09-17T14:30:57.096Z,3.30
2018-09-17T14:33:30.468Z,3.42
2018-09-17T14:35:58.043Z,3.70
2018-09-17T14:38:25.625Z,3.80
2018-09-17T14:40:53.375Z,3.80
2018-09-17T14:43:20.933Z,3.80
2018-09-17T14:45:48.443Z,3.45
2018-09-17T14:48:15.984Z,3.52
2018-09-17T14:50:44.371Z,3.35
2018-09-17T14:53:11.916Z,3.52
2018-09-17T14:55:39.443Z,3.58
2018-09-17T14:58:07.057Z,3.40
2018-09-17T15:00:34.703Z,3.50
2018-09-17T15:03:02.260Z,3.42
2018-09-17T15:05:29.798Z,3.55
2018-09-17T15:07:57.357Z,3.30
2018-09-17T15:10:25.053Z,3.58
2018-09-17T15:12:52.441Z,3.72
2018-09-17T15:15:20.102Z,3.67
2018-09-17T15:17:47.536Z,3.50
2018-09-17T15:20:15.111Z,3.77
2018-09-17T15:22:42.660Z,3.70
2018-09-17T15:25:10.207Z,3.40
2018-09-17T15:27:37.805Z,3.50
2018-09-17T15:30:06.064Z,3.47
2018-09-17T15:32:39.294Z,3.42
2018-09-17T15:35:10.328Z,3.35
2018-09-17T15:37:38.897Z,3.52
2018-09-17T15:40:06.520Z,3.40
2018-09-17T15:42:34.001Z,3.55
2018-09-17T15:45:09.432Z,3.37
2018-09-17T15:47:36.951Z,3.58
2018-09-17T15:50:04.480Z,3.40
2018-09-17T15:52:31.971Z,3.52
2018-09-17T15:54:59.471Z,3.77
2018-09-17T15:57:26.982Z,3.22
2018-09-17T15:59:54.483Z,3.45
2018-09-17T16:02:21.987Z,3.65
2018-09-17T16:04:49.509Z,3.55
2018-09-17T16:07:17.025Z,3.10
2018-09-17T16:09:44.524Z,3.60
2018-09-17T16:12:12.019Z,3.50
2018-09-17T16:14:39.510Z,3.30
2018-09-17T16:17:07.020Z,3.33
2018-09-17T16:19:34.650Z,3.30
2018-09-17T16:22:02.149Z,3.45
2018-09-17T16:24:29.668Z,3.42
2018-09-17T16:27:16.966Z,3.52
2018-09-17T16:29:44.493Z,3.37
2018-09-17T16:32:11.996Z,3.35
2018-09-17T16:34:39.511Z,3.67
2018-09-17T16:37:07.023Z,3.27
2018-09-17T16:39:34.527Z,3.70
2018-09-17T16:42:02.032Z,3.90
2018-09-17T16:44:46.905Z,4.25
2018-09-17T16:47:14.452Z,3.77
2018-09-17T16:49:41.907Z,4.00
2018-09-17T16:52:09.408Z,3.40
2018-09-17T16:54:36.920Z,3.50
2018-09-17T16:57:04.420Z,3.83
2018-09-17T16:59:31.935Z,3.40
2018-09-17T17:01:59.452Z,3.00
2018-09-17T17:04:26.990Z,3.22
2018-09-17T17:06:54.483Z,3.30
2018-09-17T17:09:22.009Z,3.27
2018-09-17T17:11:49.544Z,3.60
2018-09-17T17:14:17.041Z,3.33
2018-09-17T17:16:44.883Z,2.98
2018-09-17T17:19:12.436Z,3.37
2018-09-17T17:21:39.909Z,3.55
2018-09-17T17:24:07.510Z,3.45
2018-09-17T17:26:35.078Z,3.45
2018-09-17T17:29:02.617Z,3.10
2018-09-17T17:31:30.127Z,3.60
2018-09-17T17:33:57.658Z,3.67
2018-09-17T17:36:25.161Z,3.92
2018-09-17T17:38:52.677Z,3.65
2018-09-17T17:41:20.185Z,4.08
2018-09-17T17:43:47.687Z,3.45
2018-09-17T17:46:15.274Z,3.42
2018-09-17T17:48:42.682Z,3.40
2018-09-17T17:51:10.204Z,3.90
2018-09-17T17:53:37.724Z,3.65
2018-09-17T17:56:05.238Z,4.00
2018-09-17T17:58:33.125Z,3.87
2018-09-17T18:01:01.023Z,4.10
2018-09-17T18:03:28.391Z,4.00
2018-09-17T18:05:55.920Z,4.35
2018-09-17T18:08:23.428Z,3.75
2018-09-17T18:10:50.944Z,3.92
2018-09-17T18:13:18.463Z,4.42
2018-09-17T18:15:45.975Z,4.10
2018-09-17T18:18:13.468Z,3.77
2018-09-17T18:20:41.000Z,3.62
2018-09-17T18:23:08.501Z,4.20
2018-09-17T18:25:36.071Z,4.28
2018-09-17T18:28:03.581Z,3.83
2018-09-17T18:30:31.096Z,4.35
2018-09-17T18:32:58.670Z,4.33
2018-09-17T18:35:26.133Z,4.30
2018-09-17T18:37:53.645Z,4.55
2018-09-17T18:40:21.179Z,3.50
2018-09-17T18:42:48.698Z,4.20
2018-09-17T18:45:16.263Z,4.33
2018-09-17T18:47:43.758Z,4.17
2018-09-17T18:50:11.264Z,4.67
2018-09-17T18:52:38.905Z,4.33
2018-09-17T18:55:06.435Z,4.28
2018-09-17T18:57:33.974Z,4.20
2018-09-17T19:00:01.570Z,4.30
2018-09-17T19:02:28.970Z,4.33
2018-09-17T19:04:56.486Z,4.53
2018-09-17T19:07:23.996Z,4.50
2018-09-17T19:09:51.499Z,4.40
2018-09-17T19:12:19.980Z,4.12
2018-09-17T19:14:53.217Z,4.30
2018-09-17T19:17:26.389Z,4.20
2018-09-17T19:19:54.123Z,4.70
2018-09-17T19:22:27.503Z,4.45
2018-09-17T19:24:55.105Z,4.22
2018-09-17T19:27:48.694Z,4.37
2018-09-17T19:30:16.590Z,4.00
2018-09-17T19:32:44.409Z,4.12
2018-09-17T19:35:12.035Z,4.45
2018-09-17T19:37:57.709Z,4.75
2018-09-17T19:40:36.989Z,4.70
2018-09-17T19:43:04.533Z,4.70
2018-09-17T19:46:36.500Z,4.22
2018-09-17T19:49:04.057Z,4.12
2018-09-17T19:51:38.323Z,4.22
2018-09-17T19:54:05.916Z,4.60
2018-09-17T19:56:33.464Z,4.10
2018-09-17T19:59:06.812Z,4.28
2018-09-17T20:01:34.368Z,4.28
2018-09-17T20:04:07.744Z,4.30
2018-09-17T20:06:54.814Z,4.55
2018-09-17T20:09:22.341Z,4.42
2018-09-17T20:11:49.866Z,4.55
2018-09-17T20:14:17.404Z,4.47
2018-09-17T20:16:44.932Z,4.33
2018-09-17T20:19:12.467Z,4.80
2018-09-17T20:21:40.021Z,4.25
2018-09-17T20:24:07.573Z,4.25
2018-09-17T20:26:35.111Z,4.45
2018-09-17T20:29:02.674Z,4.35
2018-09-17T20:31:30.225Z,4.28
2018-09-17T20:36:58.360Z,4.97
2018-09-17T20:39:26.080Z,4.55
2018-09-17T20:41:53.575Z,4.85
2018-09-17T20:44:38.499Z,4.80
2018-09-17T20:47:06.062Z,4.85
2018-09-17T20:49:37.685Z,4.67
2018-09-17T20:52:05.189Z,4.67
2018-09-17T20:54:32.684Z,4.62
2018-09-17T20:57:00.191Z,4.60
2018-09-17T20:59:27.674Z,4.58
2018-09-17T21:02:21.408Z,4.75
2018-09-17T21:04:48.903Z,4.80
2018-09-17T21:07:16.486Z,5.15
2018-09-17T21:09:43.918Z,4.70
2018-09-17T21:12:15.482Z,4.80
2018-09-17T21:14:42.971Z,5.08
2018-09-17T21:17:10.480Z,5.50
2018-09-17T21:19:50.218Z,5.30
2018-09-17T21:25:34.988Z,4.85
2018-09-17T21:28:02.543Z,5.10
2018-09-17T21:30:30.004Z,5.40
2018-09-17T21:32:57.510Z,4.78
2018-09-17T21:35:25.003Z,5.03
2018-09-17T21:37:52.625Z,4.87
2018-09-17T21:40:20.137Z,5.30
2018-09-17T21:42:47.662Z,5.12
2018-09-17T21:45:15.169Z,5.10
2018-09-17T21:47:42.667Z,5.17
2018-09-17T21:50:10.169Z,5.12
2018-09-17T21:52:37.690Z,5.17
2018-09-17T21:55:05.209Z,5.40
2018-09-17T21:57:32.719Z,5.55
2018-09-17T22:00:00.216Z,5.45
2018-09-17T22:02:27.725Z,4.90
2018-09-17T22:04:55.243Z,5.00
2018-09-17T22:07:23.560Z,5.37
2018-09-17T22:09:51.053Z,5.60
2018-09-17T22:12:18.724Z,5.25
2018-09-17T22:14:46.207Z,5.12
2018-09-17T22:17:13.703Z,5.17
2018-09-17T22:19:41.316Z,5.42
2018-09-17T22:22:08.770Z,5.60
2018-09-17T22:24:36.264Z,5.47
2018-09-17T22:27:03.775Z,4.67
2018-09-17T22:29:31.264Z,5.28
2018-09-17T22:31:58.768Z,5.55
2018-09-17T22:34:26.275Z,5.58
2018-09-17T22:36:53.836Z,5.37
2018-09-17T22:42:50.271Z,5.37
2018-09-17T22:45:17.819Z,5.35
2018-09-17T22:47:45.354Z,5.58
2018-09-17T22:50:12.924Z,5.80
2018-09-17T22:52:40.468Z,5.83
2018-09-17T22:55:08.005Z,5.70
2018-09-17T22:57:35.571Z,5.65
2018-09-17T23:00:03.278Z,5.22
2018-09-17T23:02:30.811Z,5.65
2018-09-17T23:04:58.341Z,5.57
2018-09-17T23:07:32.602Z,5.95
2018-09-17T23:10:00.143Z,5.90
2018-09-17T23:12:27.692Z,5.43
2018-09-17T23:14:55.214Z,5.42
2018-09-17T23:17:22.766Z,5.72
2018-09-17T23:19:50.340Z,5.65
2018-09-17T23:22:17.888Z,5.50
2018-09-17T23:24:45.432Z,5.35
2018-09-17T23:27:12.965Z,5.50
2018-09-17T23:29:40.504Z,5.40
2018-09-17T23:32:08.056Z,5.53
2018-09-17T23:34:35.574Z,5.20
2018-09-17T23:37:03.132Z,5.42
2018-09-17T23:39:30.654Z,5.10
2018-09-17T23:41:58.583Z,5.15
2018-09-17T23:44:26.095Z,5.35
2018-09-17T23:46:53.601Z,4.95
2018-09-17T23:49:21.123Z,5.25
2018-09-17T23:51:48.643Z,5.33
2018-09-17T23:54:16.150Z,5.17
2018-09-17T23:56:43.663Z,5.42
2018-09-17T23:59:11.175Z,5.10
